sensor_id;sensor_type;location;lat;lon;timestamp;P1;durP1;ratioP1;P2;durP2;ratioP2
40907;SDS011;51055;59.436;24.778;2023-01-10T00:01:30;23.02;;;12.43;;
40907;SDS011;51055;59.436;24.778;2023-01-10T00:03:58;18.73;;;9.47;;
40907;SDS011;51055;59.436;24.778;2023-01-10T00:06:26;25.60;;;11.98;;
40907;SDS011;51055;59.436;24.778;2023-01-10T00:08:54;26.52;;;12.27;;
40907;SDS011;51055;59.436;24.778;2023-01-10T00:11:23;22.42;;;11.70;;
40907;SDS011;51055;59.436;24.778;2023-01-10T00:14:09;28.95;;;13.40;;
40907;SDS011;51055;59.436;24.778;2023-01-10T00:16:38;22.45;;;11.40;;
40907;SDS011;51055;59.436;24.778;2023-01-10T00:19:07;22.10;;;11.45;;
40907;SDS011;51055;59.436;24.778;2023-01-10T00:21:36;24.55;;;11.65;;
40907;SDS011;51055;59.436;24.778;2023-01-10T00:24:05;24.45;;;12.90;;
40907;SDS011;51055;59.436;24.778;2023-01-10T00:26:46;28.20;;;12.07;;
40907;SDS011;51055;59.436;24.778;2023-01-10T00:29:18;24.60;;;11.90;;
40907;SDS011;51055;59.436;24.778;2023-01-10T00:31:47;23.42;;;11.57;;
40907;SDS011;51055;59.436;24.778;2023-01-10T00:34:15;22.40;;;12.07;;
40907;SDS011;51055;59.436;24.778;2023-01-10T00:36:43;22.33;;;12.18;;
40907;SDS011;51055;59.436;24.778;2023-01-10T00:39:14;21.73;;;11.80;;
40907;SDS011;51055;59.436;24.778;2023-01-10T00:41:44;21.38;;;11.45;;
40907;SDS011;51055;59.436;24.778;2023-01-10T00:44:30;24.27;;;11.73;;
40907;SDS011;51055;59.436;24.778;2023-01-10T00:46:58;22.48;;;10.98;;
40907;SDS011;51055;59.436;24.778;2023-01-10T00:49:26;22.77;;;11.93;;
40907;SDS011;51055;59.436;24.778;2023-01-10T00:51:54;24.08;;;11.65;;
40907;SDS011;51055;59.436;24.778;2023-01-10T00:54:24;21.30;;;11.05;;
40907;SDS011;51055;59.436;24.778;2023-01-10T00:56:52;18.65;;;8.98;;
40907;SDS011;51055;59.436;24.778;2023-01-10T00:59:21;15.13;;;8.27;;
40907;SDS011;51055;59.436;24.778;2023-01-10T01:01:49;21.08;;;10.35;;
40907;SDS011;51055;59.436;24.778;2023-01-10T01:04:18;19.00;;;9.55;;
40907;SDS011;51055;59.436;24.778;2023-01-10T01:06:45;19.08;;;10.43;;
40907;SDS011;51055;59.436;24.778;2023-01-10T01:09:13;20.48;;;10.15;;
40907;SDS011;51055;59.436;24.778;2023-01-10T01:11:41;22.02;;;10.73;;
40907;SDS011;51055;59.436;24.778;2023-01-10T01:14:09;20.85;;;10.48;;
40907;SDS011;51055;59.436;24.778;2023-01-10T01:16:36;21.08;;;10.18;;
40907;SDS011;51055;59.436;24.778;2023-01-10T01:19:04;22.75;;;10.77;;
40907;SDS011;51055;59.436;24.778;2023-01-10T01:21:32;20.58;;;10.35;;
40907;SDS011;51055;59.436;24.778;2023-01-10T01:23:59;19.90;;;10.43;;
40907;SDS011;51055;59.436;24.778;2023-01-10T01:26:27;18.77;;;10.00;;
40907;SDS011;51055;59.436;24.778;2023-01-10T01:28:55;21.58;;;10.43;;
40907;SDS011;51055;59.436;24.778;2023-01-10T01:31:23;18.75;;;10.90;;
40907;SDS011;51055;59.436;24.778;2023-01-10T01:33:51;21.35;;;10.63;;
40907;SDS011;51055;59.436;24.778;2023-01-10T01:36:18;19.30;;;10.40;;
40907;SDS011;51055;59.436;24.778;2023-01-10T01:38:46;25.40;;;11.35;;
40907;SDS011;51055;59.436;24.778;2023-01-10T01:41:13;24.05;;;10.65;;
40907;SDS011;51055;59.436;24.778;2023-01-10T01:44:04;21.58;;;10.88;;
40907;SDS011;51055;59.436;24.778;2023-01-10T01:46:35;19.98;;;10.38;;
40907;SDS011;51055;59.436;24.778;2023-01-10T01:49:05;22.20;;;10.73;;
40907;SDS011;51055;59.436;24.778;2023-01-10T01:51:41;19.60;;;10.32;;
40907;SDS011;51055;59.436;24.778;2023-01-10T01:54:11;19.60;;;10.65;;
40907;SDS011;51055;59.436;24.778;2023-01-10T01:56:41;18.67;;;10.13;;
40907;SDS011;51055;59.436;24.778;2023-01-10T01:59:19;22.10;;;11.63;;
40907;SDS011;51055;59.436;24.778;2023-01-10T02:01:55;21.20;;;10.27;;
40907;SDS011;51055;59.436;24.778;2023-01-10T02:04:33;22.92;;;10.70;;
40907;SDS011;51055;59.436;24.778;2023-01-10T02:09:38;21.23;;;10.15;;
40907;SDS011;51055;59.436;24.778;2023-01-10T02:12:09;23.40;;;10.70;;
40907;SDS011;51055;59.436;24.778;2023-01-10T02:14:41;20.65;;;10.85;;
40907;SDS011;51055;59.436;24.778;2023-01-10T02:17:11;19.80;;;10.07;;
40907;SDS011;51055;59.436;24.778;2023-01-10T02:19:56;21.05;;;10.57;;
40907;SDS011;51055;59.436;24.778;2023-01-10T02:33:22;19.95;;;9.35;;
40907;SDS011;51055;59.436;24.778;2023-01-10T02:39:07;21.13;;;10.00;;
40907;SDS011;51055;59.436;24.778;2023-01-10T02:44:48;20.15;;;10.48;;
40907;SDS011;51055;59.436;24.778;2023-01-10T02:47:17;21.52;;;10.70;;
40907;SDS011;51055;59.436;24.778;2023-01-10T02:49:46;18.20;;;10.23;;
40907;SDS011;51055;59.436;24.778;2023-01-10T02:52:24;19.67;;;10.57;;
40907;SDS011;51055;59.436;24.778;2023-01-10T02:54:56;19.35;;;10.30;;
40907;SDS011;51055;59.436;24.778;2023-01-10T02:57:34;21.58;;;10.18;;
40907;SDS011;51055;59.436;24.778;2023-01-10T03:06:33;21.08;;;9.98;;
40907;SDS011;51055;59.436;24.778;2023-01-10T03:09:05;19.20;;;9.30;;
40907;SDS011;51055;59.436;24.778;2023-01-10T03:11:43;17.58;;;9.07;;
40907;SDS011;51055;59.436;24.778;2023-01-10T03:16:45;21.58;;;10.30;;
40907;SDS011;51055;59.436;24.778;2023-01-10T03:19:19;17.73;;;9.00;;
40907;SDS011;51055;59.436;24.778;2023-01-10T03:21:50;18.35;;;9.48;;
40907;SDS011;51055;59.436;24.778;2023-01-10T03:24:24;19.20;;;9.45;;
40907;SDS011;51055;59.436;24.778;2023-01-10T03:27:00;18.63;;;9.68;;
40907;SDS011;51055;59.436;24.778;2023-01-10T03:29:40;20.90;;;9.18;;
40907;SDS011;51055;59.436;24.778;2023-01-10T03:32:14;19.15;;;9.63;;
40907;SDS011;51055;59.436;24.778;2023-01-10T03:34:45;17.08;;;9.68;;
40907;SDS011;51055;59.436;24.778;2023-01-10T03:42:59;22.23;;;10.38;;
40907;SDS011;51055;59.436;24.778;2023-01-10T03:48:20;20.58;;;10.02;;
40907;SDS011;51055;59.436;24.778;2023-01-10T03:50:50;22.55;;;10.07;;
40907;SDS011;51055;59.436;24.778;2023-01-10T03:53:18;14.40;;;7.80;;
40907;SDS011;51055;59.436;24.778;2023-01-10T03:55:46;17.03;;;7.77;;
40907;SDS011;51055;59.436;24.778;2023-01-10T03:58:14;19.05;;;9.73;;
40907;SDS011;51055;59.436;24.778;2023-01-10T04:00:43;20.15;;;9.57;;
40907;SDS011;51055;59.436;24.778;2023-01-10T04:03:11;16.48;;;9.48;;
40907;SDS011;51055;59.436;24.778;2023-01-10T04:05:39;22.77;;;10.00;;
40907;SDS011;51055;59.436;24.778;2023-01-10T04:08:07;21.65;;;10.13;;
40907;SDS011;51055;59.436;24.778;2023-01-10T04:10:35;18.95;;;7.55;;
40907;SDS011;51055;59.436;24.778;2023-01-10T04:13:04;18.17;;;8.85;;
40907;SDS011;51055;59.436;24.778;2023-01-10T04:15:32;15.03;;;7.93;;
40907;SDS011;51055;59.436;24.778;2023-01-10T04:17:59;20.88;;;10.32;;
40907;SDS011;51055;59.436;24.778;2023-01-10T04:20:27;21.33;;;10.38;;
40907;SDS011;51055;59.436;24.778;2023-01-10T04:22:54;22.20;;;10.15;;
40907;SDS011;51055;59.436;24.778;2023-01-10T04:25:22;20.48;;;9.38;;
40907;SDS011;51055;59.436;24.778;2023-01-10T04:27:51;14.65;;;7.72;;
40907;SDS011;51055;59.436;24.778;2023-01-10T04:30:19;18.92;;;9.60;;
40907;SDS011;51055;59.436;24.778;2023-01-10T04:32:46;18.77;;;9.48;;
40907;SDS011;51055;59.436;24.778;2023-01-10T04:35:14;19.00;;;9.70;;
40907;SDS011;51055;59.436;24.778;2023-01-10T04:37:41;22.80;;;10.02;;
40907;SDS011;51055;59.436;24.778;2023-01-10T04:40:09;20.10;;;10.00;;
40907;SDS011;51055;59.436;24.778;2023-01-10T04:42:37;18.83;;;10.10;;
40907;SDS011;51055;59.436;24.778;2023-01-10T04:45:05;18.70;;;9.25;;
40907;SDS011;51055;59.436;24.778;2023-01-10T04:47:33;14.57;;;7.47;;
40907;SDS011;51055;59.436;24.778;2023-01-10T04:50:00;18.33;;;9.68;;
40907;SDS011;51055;59.436;24.778;2023-01-10T04:52:28;17.08;;;8.60;;
40907;SDS011;51055;59.436;24.778;2023-01-10T04:54:55;18.67;;;9.60;;
40907;SDS011;51055;59.436;24.778;2023-01-10T04:57:23;16.38;;;9.05;;
40907;SDS011;51055;59.436;24.778;2023-01-10T04:59:52;18.80;;;9.32;;
40907;SDS011;51055;59.436;24.778;2023-01-10T05:02:20;18.58;;;10.27;;
40907;SDS011;51055;59.436;24.778;2023-01-10T05:04:48;21.00;;;9.73;;
40907;SDS011;51055;59.436;24.778;2023-01-10T05:07:15;22.45;;;10.30;;
40907;SDS011;51055;59.436;24.778;2023-01-10T05:09:43;17.50;;;9.02;;
40907;SDS011;51055;59.436;24.778;2023-01-10T05:12:11;25.38;;;9.45;;
40907;SDS011;51055;59.436;24.778;2023-01-10T05:14:39;18.60;;;9.55;;
40907;SDS011;51055;59.436;24.778;2023-01-10T05:17:06;17.02;;;9.35;;
40907;SDS011;51055;59.436;24.778;2023-01-10T05:19:33;18.10;;;9.20;;
40907;SDS011;51055;59.436;24.778;2023-01-10T05:22:01;18.48;;;9.40;;
40907;SDS011;51055;59.436;24.778;2023-01-10T05:24:29;16.70;;;8.93;;
40907;SDS011;51055;59.436;24.778;2023-01-10T05:26:57;17.58;;;8.95;;
40907;SDS011;51055;59.436;24.778;2023-01-10T05:29:24;19.25;;;8.95;;
40907;SDS011;51055;59.436;24.778;2023-01-10T05:31:52;16.42;;;8.43;;
40907;SDS011;51055;59.436;24.778;2023-01-10T05:34:20;18.00;;;9.10;;
40907;SDS011;51055;59.436;24.778;2023-01-10T05:36:47;21.60;;;9.05;;
40907;SDS011;51055;59.436;24.778;2023-01-10T05:39:15;17.13;;;9.32;;
40907;SDS011;51055;59.436;24.778;2023-01-10T05:41:43;16.00;;;8.93;;
40907;SDS011;51055;59.436;24.778;2023-01-10T05:44:10;17.92;;;9.02;;
40907;SDS011;51055;59.436;24.778;2023-01-10T05:46:40;19.27;;;9.45;;
40907;SDS011;51055;59.436;24.778;2023-01-10T05:49:08;19.80;;;9.63;;
40907;SDS011;51055;59.436;24.778;2023-01-10T05:51:35;17.80;;;9.05;;
40907;SDS011;51055;59.436;24.778;2023-01-10T05:54:03;15.82;;;8.50;;
40907;SDS011;51055;59.436;24.778;2023-01-10T05:56:30;16.58;;;9.23;;
40907;SDS011;51055;59.436;24.778;2023-01-10T05:58:59;15.20;;;8.68;;
40907;SDS011;51055;59.436;24.778;2023-01-10T06:01:47;16.55;;;8.68;;
40907;SDS011;51055;59.436;24.778;2023-01-10T06:04:14;15.65;;;8.32;;
40907;SDS011;51055;59.436;24.778;2023-01-10T06:06:42;19.48;;;8.68;;
40907;SDS011;51055;59.436;24.778;2023-01-10T06:09:09;17.77;;;9.20;;
40907;SDS011;51055;59.436;24.778;2023-01-10T06:11:37;17.40;;;9.50;;
40907;SDS011;51055;59.436;24.778;2023-01-10T06:14:05;15.38;;;9.02;;
40907;SDS011;51055;59.436;24.778;2023-01-10T06:16:33;19.40;;;9.10;;
40907;SDS011;51055;59.436;24.778;2023-01-10T06:19:01;16.50;;;8.90;;
40907;SDS011;51055;59.436;24.778;2023-01-10T06:21:28;17.88;;;8.82;;
40907;SDS011;51055;59.436;24.778;2023-01-10T06:23:56;17.05;;;8.38;;
40907;SDS011;51055;59.436;24.778;2023-01-10T06:26:24;16.88;;;8.23;;
40907;SDS011;51055;59.436;24.778;2023-01-10T06:28:52;20.08;;;9.02;;
40907;SDS011;51055;59.436;24.778;2023-01-10T06:31:19;19.85;;;9.43;;
40907;SDS011;51055;59.436;24.778;2023-01-10T06:33:49;13.60;;;7.57;;
40907;SDS011;51055;59.436;24.778;2023-01-10T06:36:17;15.90;;;8.95;;
40907;SDS011;51055;59.436;24.778;2023-01-10T06:38:44;16.30;;;8.52;;
40907;SDS011;51055;59.436;24.778;2023-01-10T06:41:12;17.33;;;8.73;;
40907;SDS011;51055;59.436;24.778;2023-01-10T06:43:41;17.80;;;9.45;;
40907;SDS011;51055;59.436;24.778;2023-01-10T06:46:13;19.42;;;9.10;;
40907;SDS011;51055;59.436;24.778;2023-01-10T06:48:43;17.42;;;8.52;;
40907;SDS011;51055;59.436;24.778;2023-01-10T06:51:12;18.20;;;9.07;;
40907;SDS011;51055;59.436;24.778;2023-01-10T06:53:41;15.90;;;8.70;;
40907;SDS011;51055;59.436;24.778;2023-01-10T06:56:09;17.30;;;9.70;;
40907;SDS011;51055;59.436;24.778;2023-01-10T06:58:37;15.48;;;8.10;;
40907;SDS011;51055;59.436;24.778;2023-01-10T07:01:06;16.75;;;8.98;;
40907;SDS011;51055;59.436;24.778;2023-01-10T07:03:39;15.15;;;8.30;;
40907;SDS011;51055;59.436;24.778;2023-01-10T07:06:08;11.98;;;6.95;;
40907;SDS011;51055;59.436;24.778;2023-01-10T07:08:36;16.65;;;8.98;;
40907;SDS011;51055;59.436;24.778;2023-01-10T07:11:06;18.25;;;8.55;;
40907;SDS011;51055;59.436;24.778;2023-01-10T07:16:03;17.05;;;8.52;;
40907;SDS011;51055;59.436;24.778;2023-01-10T07:18:37;15.75;;;8.13;;
40907;SDS011;51055;59.436;24.778;2023-01-10T07:21:06;17.05;;;8.30;;
40907;SDS011;51055;59.436;24.778;2023-01-10T07:23:34;14.63;;;6.78;;
40907;SDS011;51055;59.436;24.778;2023-01-10T07:26:03;14.93;;;8.57;;
40907;SDS011;51055;59.436;24.778;2023-01-10T07:28:32;14.25;;;8.32;;
40907;SDS011;51055;59.436;24.778;2023-01-10T07:31:03;15.18;;;8.40;;
40907;SDS011;51055;59.436;24.778;2023-01-10T07:33:32;19.65;;;9.65;;
40907;SDS011;51055;59.436;24.778;2023-01-10T07:36:00;17.80;;;8.88;;
40907;SDS011;51055;59.436;24.778;2023-01-10T07:38:28;18.25;;;9.18;;
40907;SDS011;51055;59.436;24.778;2023-01-10T07:40:56;16.35;;;8.50;;
40907;SDS011;51055;59.436;24.778;2023-01-10T07:43:24;17.67;;;8.85;;
40907;SDS011;51055;59.436;24.778;2023-01-10T07:45:52;18.85;;;10.10;;
40907;SDS011;51055;59.436;24.778;2023-01-10T07:48:20;18.55;;;8.82;;
40907;SDS011;51055;59.436;24.778;2023-01-10T07:50:48;16.67;;;8.85;;
40907;SDS011;51055;59.436;24.778;2023-01-10T07:53:16;17.17;;;9.00;;
40907;SDS011;51055;59.436;24.778;2023-01-10T07:55:43;17.10;;;8.65;;
40907;SDS011;51055;59.436;24.778;2023-01-10T07:58:12;15.25;;;7.03;;
40907;SDS011;51055;59.436;24.778;2023-01-10T08:00:40;15.95;;;8.45;;
40907;SDS011;51055;59.436;24.778;2023-01-10T08:03:11;16.88;;;9.18;;
40907;SDS011;51055;59.436;24.778;2023-01-10T08:05:39;18.85;;;8.75;;
40907;SDS011;51055;59.436;24.778;2023-01-10T08:08:07;20.08;;;10.00;;
40907;SDS011;51055;59.436;24.778;2023-01-10T08:10:37;18.40;;;9.50;;
40907;SDS011;51055;59.436;24.778;2023-01-10T08:13:06;19.08;;;9.60;;
40907;SDS011;51055;59.436;24.778;2023-01-10T08:18:19;18.23;;;9.05;;
40907;SDS011;51055;59.436;24.778;2023-01-10T08:20:48;17.55;;;9.10;;
40907;SDS011;51055;59.436;24.778;2023-01-10T08:23:17;18.42;;;9.45;;
40907;SDS011;51055;59.436;24.778;2023-01-10T08:25:45;20.10;;;9.90;;
40907;SDS011;51055;59.436;24.778;2023-01-10T08:28:13;18.38;;;10.23;;
40907;SDS011;51055;59.436;24.778;2023-01-10T08:30:42;22.88;;;11.85;;
40907;SDS011;51055;59.436;24.778;2023-01-10T08:33:10;23.02;;;12.38;;
40907;SDS011;51055;59.436;24.778;2023-01-10T08:35:39;17.67;;;10.02;;
40907;SDS011;51055;59.436;24.778;2023-01-10T08:38:09;19.85;;;10.68;;
40907;SDS011;51055;59.436;24.778;2023-01-10T08:40:37;18.35;;;10.18;;
40907;SDS011;51055;59.436;24.778;2023-01-10T08:43:06;12.50;;;7.13;;
40907;SDS011;51055;59.436;24.778;2023-01-10T08:45:36;19.60;;;10.02;;
40907;SDS011;51055;59.436;24.778;2023-01-10T08:48:04;20.00;;;9.65;;
40907;SDS011;51055;59.436;24.778;2023-01-10T08:50:33;20.15;;;10.02;;
40907;SDS011;51055;59.436;24.778;2023-01-10T08:53:01;22.05;;;10.68;;
40907;SDS011;51055;59.436;24.778;2023-01-10T08:55:28;17.08;;;9.77;;
40907;SDS011;51055;59.436;24.778;2023-01-10T08:57:58;18.77;;;10.32;;
40907;SDS011;51055;59.436;24.778;2023-01-10T09:00:27;21.27;;;10.57;;
40907;SDS011;51055;59.436;24.778;2023-01-10T09:02:55;22.55;;;12.35;;
40907;SDS011;51055;59.436;24.778;2023-01-10T09:05:24;20.83;;;10.52;;
40907;SDS011;51055;59.436;24.778;2023-01-10T09:07:58;19.83;;;9.82;;
40907;SDS011;51055;59.436;24.778;2023-01-10T09:10:27;17.90;;;10.07;;
40907;SDS011;51055;59.436;24.778;2023-01-10T09:12:56;18.90;;;11.30;;
40907;SDS011;51055;59.436;24.778;2023-01-10T09:15:29;18.83;;;10.02;;
40907;SDS011;51055;59.436;24.778;2023-01-10T09:18:02;15.00;;;8.65;;
40907;SDS011;51055;59.436;24.778;2023-01-10T09:20:33;19.52;;;9.80;;
40907;SDS011;51055;59.436;24.778;2023-01-10T09:23:06;15.68;;;9.23;;
40907;SDS011;51055;59.436;24.778;2023-01-10T09:25:36;18.45;;;9.73;;
40907;SDS011;51055;59.436;24.778;2023-01-10T09:28:04;15.30;;;8.67;;
40907;SDS011;51055;59.436;24.778;2023-01-10T09:30:32;18.77;;;9.63;;
40907;SDS011;51055;59.436;24.778;2023-01-10T09:33:01;20.70;;;10.10;;
40907;SDS011;51055;59.436;24.778;2023-01-10T09:37:58;18.45;;;8.45;;
40907;SDS011;51055;59.436;24.778;2023-01-10T09:43:07;23.98;;;11.65;;
40907;SDS011;51055;59.436;24.778;2023-01-10T09:53:31;16.45;;;8.85;;
40907;SDS011;51055;59.436;24.778;2023-01-10T09:56:00;17.05;;;9.73;;
40907;SDS011;51055;59.436;24.778;2023-01-10T09:58:29;18.02;;;10.05;;
40907;SDS011;51055;59.436;24.778;2023-01-10T10:01:03;16.77;;;8.90;;
40907;SDS011;51055;59.436;24.778;2023-01-10T10:03:54;16.75;;;8.88;;
40907;SDS011;51055;59.436;24.778;2023-01-10T10:06:47;20.98;;;9.98;;
40907;SDS011;51055;59.436;24.778;2023-01-10T10:09:17;15.90;;;9.18;;
40907;SDS011;51055;59.436;24.778;2023-01-10T10:12:00;18.02;;;9.93;;
40907;SDS011;51055;59.436;24.778;2023-01-10T10:23:01;19.17;;;10.27;;
40907;SDS011;51055;59.436;24.778;2023-01-10T10:33:23;19.88;;;10.80;;
40907;SDS011;51055;59.436;24.778;2023-01-10T10:35:56;20.85;;;11.75;;
40907;SDS011;51055;59.436;24.778;2023-01-10T10:38:31;20.20;;;10.88;;
40907;SDS011;51055;59.436;24.778;2023-01-10T10:41:03;24.80;;;11.02;;
40907;SDS011;51055;59.436;24.778;2023-01-10T10:43:41;14.40;;;7.90;;
40907;SDS011;51055;59.436;24.778;2023-01-10T10:46:14;20.52;;;10.65;;
40907;SDS011;51055;59.436;24.778;2023-01-10T10:54:09;20.70;;;10.65;;
40907;SDS011;51055;59.436;24.778;2023-01-10T10:56:39;22.52;;;11.93;;
40907;SDS011;51055;59.436;24.778;2023-01-10T10:59:08;20.95;;;11.23;;
40907;SDS011;51055;59.436;24.778;2023-01-10T11:01:38;21.75;;;10.80;;
40907;SDS011;51055;59.436;24.778;2023-01-10T11:04:11;25.50;;;10.95;;
40907;SDS011;51055;59.436;24.778;2023-01-10T11:06:41;22.63;;;10.82;;
40907;SDS011;51055;59.436;24.778;2023-01-10T11:09:16;19.90;;;10.48;;
40907;SDS011;51055;59.436;24.778;2023-01-10T11:11:54;18.83;;;10.30;;
40907;SDS011;51055;59.436;24.778;2023-01-10T11:14:45;24.10;;;11.20;;
40907;SDS011;51055;59.436;24.778;2023-01-10T11:17:18;20.67;;;11.55;;
40907;SDS011;51055;59.436;24.778;2023-01-10T11:19:57;19.75;;;10.35;;
40907;SDS011;51055;59.436;24.778;2023-01-10T11:22:26;22.08;;;10.88;;
40907;SDS011;51055;59.436;24.778;2023-01-10T11:25:00;25.75;;;11.57;;
40907;SDS011;51055;59.436;24.778;2023-01-10T11:27:43;23.00;;;11.73;;
40907;SDS011;51055;59.436;24.778;2023-01-10T11:30:24;25.75;;;11.63;;
40907;SDS011;51055;59.436;24.778;2023-01-10T11:32:55;25.25;;;11.60;;
40907;SDS011;51055;59.436;24.778;2023-01-10T11:35:33;24.50;;;12.90;;
40907;SDS011;51055;59.436;24.778;2023-01-10T11:38:18;24.15;;;12.75;;
40907;SDS011;51055;59.436;24.778;2023-01-10T11:43:27;18.85;;;9.18;;
40907;SDS011;51055;59.436;24.778;2023-01-10T11:46:05;23.92;;;13.55;;
40907;SDS011;51055;59.436;24.778;2023-01-10T11:48:47;25.20;;;12.82;;
40907;SDS011;51055;59.436;24.778;2023-01-10T11:51:38;30.60;;;14.43;;
40907;SDS011;51055;59.436;24.778;2023-01-10T11:54:12;24.42;;;12.77;;
40907;SDS011;51055;59.436;24.778;2023-01-10T11:59:57;22.77;;;12.98;;
40907;SDS011;51055;59.436;24.778;2023-01-10T12:02:31;18.90;;;9.68;;
40907;SDS011;51055;59.436;24.778;2023-01-10T12:05:03;26.05;;;13.10;;
40907;SDS011;51055;59.436;24.778;2023-01-10T12:10:23;25.92;;;12.95;;
40907;SDS011;51055;59.436;24.778;2023-01-10T12:12:54;27.95;;;13.90;;
40907;SDS011;51055;59.436;24.778;2023-01-10T12:15:28;26.10;;;13.27;;
40907;SDS011;51055;59.436;24.778;2023-01-10T12:17:58;39.10;;;17.58;;
40907;SDS011;51055;59.436;24.778;2023-01-10T12:20:31;36.33;;;17.85;;
40907;SDS011;51055;59.436;24.778;2023-01-10T12:23:07;33.90;;;18.20;;
40907;SDS011;51055;59.436;24.778;2023-01-10T12:25:44;35.03;;;18.63;;
40907;SDS011;51055;59.436;24.778;2023-01-10T12:28:23;40.15;;;19.48;;
40907;SDS011;51055;59.436;24.778;2023-01-10T12:30:55;37.95;;;18.48;;
40907;SDS011;51055;59.436;24.778;2023-01-10T12:33:30;46.85;;;22.70;;
40907;SDS011;51055;59.436;24.778;2023-01-10T12:38:56;27.15;;;15.05;;
40907;SDS011;51055;59.436;24.778;2023-01-10T12:44:25;31.40;;;15.13;;
40907;SDS011;51055;59.436;24.778;2023-01-10T12:47:00;30.90;;;15.65;;
40907;SDS011;51055;59.436;24.778;2023-01-10T12:52:44;28.00;;;15.65;;
40907;SDS011;51055;59.436;24.778;2023-01-10T12:55:19;29.33;;;14.70;;
40907;SDS011;51055;59.436;24.778;2023-01-10T12:57:50;36.45;;;15.52;;
40907;SDS011;51055;59.436;24.778;2023-01-10T13:00:22;34.83;;;17.05;;
40907;SDS011;51055;59.436;24.778;2023-01-10T13:02:55;35.92;;;15.52;;
40907;SDS011;51055;59.436;24.778;2023-01-10T13:05:27;29.00;;;14.45;;
40907;SDS011;51055;59.436;24.778;2023-01-10T13:08:01;28.13;;;14.50;;
40907;SDS011;51055;59.436;24.778;2023-01-10T13:10:33;29.95;;;13.70;;
40907;SDS011;51055;59.436;24.778;2023-01-10T13:13:20;30.65;;;14.32;;
40907;SDS011;51055;59.436;24.778;2023-01-10T13:21:39;35.17;;;17.73;;
40907;SDS011;51055;59.436;24.778;2023-01-10T13:26:49;26.85;;;14.88;;
40907;SDS011;51055;59.436;24.778;2023-01-10T13:29:26;26.20;;;13.80;;
40907;SDS011;51055;59.436;24.778;2023-01-10T13:32:24;26.13;;;13.88;;
40907;SDS011;51055;59.436;24.778;2023-01-10T13:35:08;24.73;;;12.90;;
40907;SDS011;51055;59.436;24.778;2023-01-10T13:37:40;26.95;;;13.93;;
40907;SDS011;51055;59.436;24.778;2023-01-10T13:40:18;29.85;;;14.90;;
40907;SDS011;51055;59.436;24.778;2023-01-10T13:51:17;27.65;;;14.63;;
40907;SDS011;51055;59.436;24.778;2023-01-10T13:59:09;26.88;;;13.93;;
40907;SDS011;51055;59.436;24.778;2023-01-10T14:01:57;25.27;;;15.10;;
40907;SDS011;51055;59.436;24.778;2023-01-10T14:04:50;27.30;;;15.80;;
40907;SDS011;51055;59.436;24.778;2023-01-10T14:07:21;29.08;;;16.75;;
40907;SDS011;51055;59.436;24.778;2023-01-10T14:09:52;29.17;;;16.77;;
40907;SDS011;51055;59.436;24.778;2023-01-10T14:12:28;38.30;;;18.70;;
40907;SDS011;51055;59.436;24.778;2023-01-10T14:15:02;31.55;;;17.52;;
40907;SDS011;51055;59.436;24.778;2023-01-10T14:17:33;26.25;;;14.85;;
40907;SDS011;51055;59.436;24.778;2023-01-10T14:22:37;34.45;;;17.75;;
40907;SDS011;51055;59.436;24.778;2023-01-10T14:25:14;35.15;;;18.58;;
40907;SDS011;51055;59.436;24.778;2023-01-10T14:27:45;36.55;;;19.98;;
40907;SDS011;51055;59.436;24.778;2023-01-10T14:32:52;24.70;;;14.48;;
40907;SDS011;51055;59.436;24.778;2023-01-10T14:35:27;33.17;;;16.83;;
40907;SDS011;51055;59.436;24.778;2023-01-10T14:38:00;26.92;;;16.10;;
40907;SDS011;51055;59.436;24.778;2023-01-10T14:43:15;30.10;;;15.43;;
40907;SDS011;51055;59.436;24.778;2023-01-10T14:56:40;22.35;;;13.02;;
40907;SDS011;51055;59.436;24.778;2023-01-10T14:59:29;30.08;;;14.50;;
40907;SDS011;51055;59.436;24.778;2023-01-10T15:02:08;27.95;;;14.23;;
40907;SDS011;51055;59.436;24.778;2023-01-10T15:04:47;28.33;;;14.23;;
40907;SDS011;51055;59.436;24.778;2023-01-10T15:07:20;28.40;;;13.90;;
40907;SDS011;51055;59.436;24.778;2023-01-10T15:09:51;27.80;;;14.95;;
40907;SDS011;51055;59.436;24.778;2023-01-10T15:12:20;28.48;;;14.05;;
40907;SDS011;51055;59.436;24.778;2023-01-10T15:14:49;30.40;;;15.00;;
40907;SDS011;51055;59.436;24.778;2023-01-10T15:17:49;30.23;;;14.32;;
40907;SDS011;51055;59.436;24.778;2023-01-10T15:20:17;36.22;;;16.13;;
40907;SDS011;51055;59.436;24.778;2023-01-10T15:22:54;30.40;;;14.25;;
40907;SDS011;51055;59.436;24.778;2023-01-10T15:25:31;30.70;;;15.23;;
40907;SDS011;51055;59.436;24.778;2023-01-10T15:28:04;35.28;;;16.63;;
40907;SDS011;51055;59.436;24.778;2023-01-10T15:30:44;35.55;;;18.88;;
40907;SDS011;51055;59.436;24.778;2023-01-10T15:33:13;34.60;;;17.17;;
40907;SDS011;51055;59.436;24.778;2023-01-10T15:35:43;31.02;;;17.15;;
40907;SDS011;51055;59.436;24.778;2023-01-10T15:38:12;32.50;;;17.80;;
40907;SDS011;51055;59.436;24.778;2023-01-10T15:40:42;31.00;;;16.88;;
40907;SDS011;51055;59.436;24.778;2023-01-10T15:43:11;29.70;;;14.52;;
40907;SDS011;51055;59.436;24.778;2023-01-10T15:45:45;27.20;;;13.77;;
40907;SDS011;51055;59.436;24.778;2023-01-10T15:48:26;27.67;;;14.18;;
40907;SDS011;51055;59.436;24.778;2023-01-10T16:02:03;29.15;;;17.85;;
40907;SDS011;51055;59.436;24.778;2023-01-10T16:04:43;39.55;;;20.90;;
40907;SDS011;51055;59.436;24.778;2023-01-10T16:07:22;34.25;;;18.20;;
40907;SDS011;51055;59.436;24.778;2023-01-10T16:09:55;34.88;;;18.63;;
40907;SDS011;51055;59.436;24.778;2023-01-10T16:12:37;32.17;;;17.45;;
40907;SDS011;51055;59.436;24.778;2023-01-10T16:15:26;33.08;;;16.02;;
40907;SDS011;51055;59.436;24.778;2023-01-10T16:17:55;33.97;;;16.63;;
40907;SDS011;51055;59.436;24.778;2023-01-10T16:20:28;32.35;;;14.77;;
40907;SDS011;51055;59.436;24.778;2023-01-10T16:22:58;39.15;;;15.23;;
40907;SDS011;51055;59.436;24.778;2023-01-10T16:25:32;31.08;;;16.45;;
40907;SDS011;51055;59.436;24.778;2023-01-10T16:28:04;26.35;;;13.93;;
40907;SDS011;51055;59.436;24.778;2023-01-10T16:30:33;26.25;;;14.13;;
40907;SDS011;51055;59.436;24.778;2023-01-10T16:33:08;24.17;;;13.68;;
40907;SDS011;51055;59.436;24.778;2023-01-10T16:35:37;27.90;;;14.43;;
40907;SDS011;51055;59.436;24.778;2023-01-10T16:38:05;28.67;;;13.80;;
40907;SDS011;51055;59.436;24.778;2023-01-10T16:40:37;22.17;;;12.57;;
40907;SDS011;51055;59.436;24.778;2023-01-10T16:43:07;23.48;;;12.32;;
40907;SDS011;51055;59.436;24.778;2023-01-10T16:45:45;25.63;;;12.95;;
40907;SDS011;51055;59.436;24.778;2023-01-10T16:48:14;23.77;;;13.63;;
40907;SDS011;51055;59.436;24.778;2023-01-10T16:50:44;25.02;;;13.95;;
40907;SDS011;51055;59.436;24.778;2023-01-10T16:53:14;32.50;;;13.48;;
40907;SDS011;51055;59.436;24.778;2023-01-10T16:55:44;25.40;;;14.95;;
40907;SDS011;51055;59.436;24.778;2023-01-10T16:58:16;32.03;;;16.27;;
40907;SDS011;51055;59.436;24.778;2023-01-10T17:00:49;30.35;;;15.85;;
40907;SDS011;51055;59.436;24.778;2023-01-10T17:03:20;28.95;;;14.45;;
40907;SDS011;51055;59.436;24.778;2023-01-10T17:05:49;32.42;;;16.30;;